sensor_id;sensor_type;location;lat;lon;timestamp;pressure;altitude;pressure_sealevel;temperature;humidity
6680;BME280;3376;42.664;23.346;2023-02-04T00:01:57;94324.72;;;3.96;100.00
6680;BME280;3376;42.664;23.346;2023-02-04T00:04:23;94330.25;;;3.92;100.00
6680;BME280;3376;42.664;23.346;2023-02-04T00:06:50;94322.81;;;3.98;100.00
6680;BME280;3376;42.664;23.346;2023-02-04T00:09:17;94313.69;;;3.96;100.00
6680;BME280;3376;42.664;23.346;2023-02-04T00:11:45;94316.63;;;4.01;100.00
6680;BME280;3376;42.664;23.346;2023-02-04T00:14:12;94319.88;;;3.93;100.00
6680;BME280;3376;42.664;23.346;2023-02-04T00:16:38;94310.59;;;3.83;100.00
6680;BME280;3376;42.664;23.346;2023-02-04T00:19:05;94280.50;;;3.57;100.00
6680;BME280;3376;42.664;23.346;2023-02-04T00:21:32;94300.56;;;3.62;100.00
6680;BME280;3376;42.664;23.346;2023-02-04T00:23:58;94262.28;;;3.24;100.00
6680;BME280;3376;42.664;23.346;2023-02-04T00:26:25;94302.50;;;3.41;100.00
6680;BME280;3376;42.664;23.346;2023-02-04T00:28:53;94304.53;;;3.37;100.00
6680;BME280;3376;42.664;23.346;2023-02-04T00:31:20;94301.97;;;3.28;100.00
6680;BME280;3376;42.664;23.346;2023-02-04T00:33:47;94287.44;;;3.28;100.00
6680;BME280;3376;42.664;23.346;2023-02-04T00:36:14;94290.94;;;3.27;100.00
6680;BME280;3376;42.664;23.346;2023-02-04T00:38:40;94304.53;;;3.28;100.00
6680;BME280;3376;42.664;23.346;2023-02-04T00:41:07;94291.47;;;3.31;100.00
6680;BME280;3376;42.664;23.346;2023-02-04T00:43:34;94304.72;;;3.17;100.00
6680;BME280;3376;42.664;23.346;2023-02-04T00:46:02;94288.53;;;3.16;100.00
6680;BME280;3376;42.664;23.346;2023-02-04T00:48:29;94291.50;;;3.12;100.00
6680;BME280;3376;42.664;23.346;2023-02-04T00:50:55;94287.88;;;3.05;100.00
6680;BME280;3376;42.664;23.346;2023-02-04T00:53:22;94279.91;;;2.98;100.00
6680;BME280;3376;42.664;23.346;2023-02-04T00:55:49;94282.34;;;2.90;100.00
6680;BME280;3376;42.664;23.346;2023-02-04T00:58:15;94268.22;;;3.05;100.00
6680;BME280;3376;42.664;23.346;2023-02-04T01:00:42;94264.28;;;3.11;100.00
6680;BME280;3376;42.664;23.346;2023-02-04T01:03:10;94252.22;;;3.03;100.00
6680;BME280;3376;42.664;23.346;2023-02-04T01:05:37;94266.84;;;3.20;100.00
6680;BME280;3376;42.664;23.346;2023-02-04T01:08:04;94268.56;;;3.29;100.00
6680;BME280;3376;42.664;23.346;2023-02-04T01:10:31;94250.81;;;3.18;100.00
6680;BME280;3376;42.664;23.346;2023-02-04T01:12:57;94253.00;;;3.13;100.00
6680;BME280;3376;42.664;23.346;2023-02-04T01:15:24;94235.09;;;2.85;100.00
6680;BME280;3376;42.664;23.346;2023-02-04T01:17:51;94236.34;;;2.42;100.00
6680;BME280;3376;42.664;23.346;2023-02-04T01:20:19;94233.38;;;2.57;100.00
6680;BME280;3376;42.664;23.346;2023-02-04T01:22:46;94222.63;;;2.53;100.00
6680;BME280;3376;42.664;23.346;2023-02-04T01:25:12;94233.25;;;2.58;100.00
6680;BME280;3376;42.664;23.346;2023-02-04T01:27:39;94224.50;;;2.70;100.00
6680;BME280;3376;42.664;23.346;2023-02-04T01:30:07;94212.78;;;2.77;100.00
6680;BME280;3376;42.664;23.346;2023-02-04T01:32:34;94211.31;;;2.84;100.00
6680;BME280;3376;42.664;23.346;2023-02-04T01:35:01;94217.22;;;2.94;100.00
6680;BME280;3376;42.664;23.346;2023-02-04T01:37:29;94215.31;;;2.96;100.00
6680;BME280;3376;42.664;23.346;2023-02-04T01:39:56;94210.47;;;2.93;100.00
6680;BME280;3376;42.664;23.346;2023-02-04T01:42:23;94210.88;;;2.89;100.00
6680;BME280;3376;42.664;23.346;2023-02-04T01:44:50;94208.84;;;2.92;100.00
6680;BME280;3376;42.664;23.346;2023-02-04T01:47:17;94199.31;;;2.94;100.00
6680;BME280;3376;42.664;23.346;2023-02-04T01:49:46;94192.72;;;2.82;100.00
6680;BME280;3376;42.664;23.346;2023-02-04T01:52:16;94192.16;;;2.88;100.00
6680;BME280;3376;42.664;23.346;2023-02-04T01:54:44;94177.00;;;2.77;100.00
6680;BME280;3376;42.664;23.346;2023-02-04T01:57:13;94202.69;;;2.85;100.00
6680;BME280;3376;42.664;23.346;2023-02-04T01:59:41;94176.03;;;2.78;100.00
6680;BME280;3376;42.664;23.346;2023-02-04T02:02:37;94185.09;;;2.44;100.00
6680;BME280;3376;42.664;23.346;2023-02-04T02:05:05;94183.59;;;2.32;100.00
6680;BME280;3376;42.664;23.346;2023-02-04T02:07:32;94170.56;;;2.35;100.00
6680;BME280;3376;42.664;23.346;2023-02-04T02:10:01;94179.84;;;2.17;100.00
6680;BME280;3376;42.664;23.346;2023-02-04T02:12:28;94184.53;;;2.21;100.00
6680;BME280;3376;42.664;23.346;2023-02-04T02:14:55;94143.38;;;1.77;100.00
6680;BME280;3376;42.664;23.346;2023-02-04T02:17:22;94163.69;;;2.16;100.00
6680;BME280;3376;42.664;23.346;2023-02-04T02:19:49;94152.03;;;2.33;100.00
6680;BME280;3376;42.664;23.346;2023-02-04T02:22:22;94164.75;;;2.52;100.00
6680;BME280;3376;42.664;23.346;2023-02-04T02:24:52;94144.19;;;2.54;100.00
6680;BME280;3376;42.664;23.346;2023-02-04T02:27:19;94128.16;;;2.61;100.00
6680;BME280;3376;42.664;23.346;2023-02-04T02:29:46;94131.66;;;2.60;100.00
6680;BME280;3376;42.664;23.346;2023-02-04T02:32:13;94133.66;;;2.76;100.00
6680;BME280;3376;42.664;23.346;2023-02-04T02:34:41;94120.84;;;2.85;100.00
6680;BME280;3376;42.664;23.346;2023-02-04T02:37:08;94107.38;;;2.83;100.00
6680;BME280;3376;42.664;23.346;2023-02-04T02:39:36;94084.09;;;2.86;100.00
6680;BME280;3376;42.664;23.346;2023-02-04T02:42:05;94099.69;;;2.93;100.00
6680;BME280;3376;42.664;23.346;2023-02-04T02:44:32;94090.44;;;2.82;100.00
6680;BME280;3376;42.664;23.346;2023-02-04T02:46:59;94077.66;;;2.82;100.00
6680;BME280;3376;42.664;23.346;2023-02-04T02:49:30;94082.09;;;2.80;100.00
6680;BME280;3376;42.664;23.346;2023-02-04T02:51:57;94086.16;;;2.73;100.00
6680;BME280;3376;42.664;23.346;2023-02-04T02:54:27;94085.09;;;2.66;100.00
6680;BME280;3376;42.664;23.346;2023-02-04T02:56:55;94080.88;;;2.75;100.00
6680;BME280;3376;42.664;23.346;2023-02-04T02:59:25;94082.13;;;2.61;100.00
6680;BME280;3376;42.664;23.346;2023-02-04T03:01:54;94083.09;;;2.60;100.00
6680;BME280;3376;42.664;23.346;2023-02-04T03:04:23;94084.94;;;2.68;100.00
6680;BME280;3376;42.664;23.346;2023-02-04T03:06:52;94088.03;;;2.81;100.00
6680;BME280;3376;42.664;23.346;2023-02-04T03:09:20;94087.44;;;2.87;100.00
6680;BME280;3376;42.664;23.346;2023-02-04T03:11:48;94074.09;;;2.93;100.00
6680;BME280;3376;42.664;23.346;2023-02-04T03:14:14;94080.00;;;2.93;100.00
6680;BME280;3376;42.664;23.346;2023-02-04T03:16:43;94091.72;;;2.96;100.00
6680;BME280;3376;42.664;23.346;2023-02-04T03:19:11;93948.25;;;1.98;100.00
6680;BME280;3376;42.664;23.346;2023-02-04T03:21:38;93999.72;;;2.40;100.00
6680;BME280;3376;42.664;23.346;2023-02-04T03:24:05;94083.38;;;2.94;100.00
6680;BME280;3376;42.664;23.346;2023-02-04T03:26:32;94076.09;;;2.99;100.00
6680;BME280;3376;42.664;23.346;2023-02-04T03:28:59;94060.13;;;2.87;100.00
6680;BME280;3376;42.664;23.346;2023-02-04T03:31:26;94073.69;;;2.97;100.00
6680;BME280;3376;42.664;23.346;2023-02-04T03:33:54;94086.03;;;3.02;100.00
6680;BME280;3376;42.664;23.346;2023-02-04T03:36:20;94078.50;;;2.64;100.00
6680;BME280;3376;42.664;23.346;2023-02-04T03:38:47;94082.44;;;2.58;100.00
6680;BME280;3376;42.664;23.346;2023-02-04T03:41:16;94075.63;;;2.39;100.00
6680;BME280;3376;42.664;23.346;2023-02-04T03:43:43;94068.19;;;2.46;100.00
6680;BME280;3376;42.664;23.346;2023-02-04T03:46:09;94056.09;;;2.38;100.00
6680;BME280;3376;42.664;23.346;2023-02-04T03:48:36;94059.09;;;2.24;100.00
6680;BME280;3376;42.664;23.346;2023-02-04T03:51:05;94062.72;;;2.22;100.00
6680;BME280;3376;42.664;23.346;2023-02-04T03:53:32;94056.41;;;2.26;100.00
6680;BME280;3376;42.664;23.346;2023-02-04T03:55:58;94047.28;;;2.14;100.00
6680;BME280;3376;42.664;23.346;2023-02-04T03:58:25;94048.88;;;2.24;100.00
6680;BME280;3376;42.664;23.346;2023-02-04T04:00:52;94029.75;;;2.28;100.00
6680;BME280;3376;42.664;23.346;2023-02-04T04:03:18;94032.16;;;2.39;100.00
6680;BME280;3376;42.664;23.346;2023-02-04T04:05:45;94008.63;;;2.36;100.00
6680;BME280;3376;42.664;23.346;2023-02-04T04:08:13;94009.78;;;2.51;100.00
6680;BME280;3376;42.664;23.346;2023-02-04T04:10:40;93834.56;;;1.58;100.00
6680;BME280;3376;42.664;23.346;2023-02-04T04:13:06;94000.84;;;2.74;100.00
6680;BME280;3376;42.664;23.346;2023-02-04T04:15:33;93999.69;;;2.86;100.00
6680;BME280;3376;42.664;23.346;2023-02-04T04:18:00;93988.06;;;2.92;100.00
6680;BME280;3376;42.664;23.346;2023-02-04T04:20:28;93997.00;;;2.88;100.00
6680;BME280;3376;42.664;23.346;2023-02-04T04:22:55;93998.81;;;2.95;100.00
6680;BME280;3376;42.664;23.346;2023-02-04T04:25:23;93984.34;;;2.86;100.00
6680;BME280;3376;42.664;23.346;2023-02-04T04:27:50;94001.59;;;2.84;100.00
6680;BME280;3376;42.664;23.346;2023-02-04T04:30:17;93990.25;;;2.87;100.00
6680;BME280;3376;42.664;23.346;2023-02-04T04:32:44;93994.97;;;2.91;100.00
6680;BME280;3376;42.664;23.346;2023-02-04T04:35:11;94001.31;;;2.87;100.00
6680;BME280;3376;42.664;23.346;2023-02-04T04:37:37;94007.75;;;2.91;100.00
6680;BME280;3376;42.664;23.346;2023-02-04T04:40:05;94004.16;;;2.84;100.00
6680;BME280;3376;42.664;23.346;2023-02-04T04:42:33;94018.53;;;2.85;100.00
6680;BME280;3376;42.664;23.346;2023-02-04T04:45:00;94021.47;;;2.90;100.00
6680;BME280;3376;42.664;23.346;2023-02-04T04:47:26;94022.00;;;2.94;100.00
6680;BME280;3376;42.664;23.346;2023-02-04T04:49:53;94030.41;;;3.04;100.00
6680;BME280;3376;42.664;23.346;2023-02-04T04:52:20;94017.34;;;3.07;100.00
6680;BME280;3376;42.664;23.346;2023-02-04T04:54:46;94027.81;;;3.13;100.00
6680;BME280;3376;42.664;23.346;2023-02-04T04:57:13;94024.53;;;3.21;100.00
6680;BME280;3376;42.664;23.346;2023-02-04T04:59:41;94034.06;;;3.28;100.00
6680;BME280;3376;42.664;23.346;2023-02-04T05:02:08;94029.09;;;3.27;100.00
6680;BME280;3376;42.664;23.346;2023-02-04T05:04:35;94032.53;;;3.35;100.00
6680;BME280;3376;42.664;23.346;2023-02-04T05:07:01;94031.34;;;3.30;100.00
6680;BME280;3376;42.664;23.346;2023-02-04T05:09:28;94040.19;;;3.18;100.00
6680;BME280;3376;42.664;23.346;2023-02-04T05:11:55;94022.94;;;3.20;100.00
6680;BME280;3376;42.664;23.346;2023-02-04T05:14:22;94022.34;;;3.26;100.00
6680;BME280;3376;42.664;23.346;2023-02-04T05:16:50;94030.75;;;3.18;100.00
6680;BME280;3376;42.664;23.346;2023-02-04T05:19:17;94045.53;;;3.24;100.00
6680;BME280;3376;42.664;23.346;2023-02-04T05:21:43;94020.63;;;2.99;100.00
6680;BME280;3376;42.664;23.346;2023-02-04T05:24:10;94043.41;;;3.20;100.00
6680;BME280;3376;42.664;23.346;2023-02-04T05:26:37;94050.75;;;3.32;100.00
6680;BME280;3376;42.664;23.346;2023-02-04T05:29:03;94054.91;;;3.33;100.00
6680;BME280;3376;42.664;23.346;2023-02-04T05:31:30;94057.41;;;3.43;100.00
6680;BME280;3376;42.664;23.346;2023-02-04T05:33:58;94066.63;;;3.53;100.00
6680;BME280;3376;42.664;23.346;2023-02-04T05:36:26;94070.97;;;3.71;100.00
6680;BME280;3376;42.664;23.346;2023-02-04T05:38:53;94066.97;;;3.86;100.00
6680;BME280;3376;42.664;23.346;2023-02-04T05:41:19;94074.28;;;3.98;100.00
6680;BME280;3376;42.664;23.346;2023-02-04T05:43:46;94084.97;;;3.94;100.00
6680;BME280;3376;42.664;23.346;2023-02-04T05:46:13;94059.72;;;3.99;100.00
6680;BME280;3376;42.664;23.346;2023-02-04T05:48:40;94085.13;;;3.92;100.00
6680;BME280;3376;42.664;23.346;2023-02-04T05:51:08;94065.66;;;3.99;100.00
6680;BME280;3376;42.664;23.346;2023-02-04T05:53:34;94083.84;;;3.96;100.00
6680;BME280;3376;42.664;23.346;2023-02-04T05:56:01;94057.72;;;3.93;100.00
6680;BME280;3376;42.664;23.346;2023-02-04T05:58:28;94055.69;;;3.96;100.00
6680;BME280;3376;42.664;23.346;2023-02-04T06:00:57;94055.41;;;3.82;100.00
6680;BME280;3376;42.664;23.346;2023-02-04T06:03:24;94047.66;;;3.74;100.00
6680;BME280;3376;42.664;23.346;2023-02-04T06:05:51;94052.38;;;3.69;100.00
6680;BME280;3376;42.664;23.346;2023-02-04T06:08:19;94052.63;;;3.75;100.00
6680;BME280;3376;42.664;23.346;2023-02-04T06:10:46;94062.13;;;3.83;100.00
6680;BME280;3376;42.664;23.346;2023-02-04T06:13:13;94055.75;;;3.87;100.00
6680;BME280;3376;42.664;23.346;2023-02-04T06:15:39;94067.16;;;4.10;100.00
6680;BME280;3376;42.664;23.346;2023-02-04T06:18:07;94068.63;;;4.30;99.76
6680;BME280;3376;42.664;23.346;2023-02-04T06:20:34;94085.06;;;4.45;99.02
6680;BME280;3376;42.664;23.346;2023-02-04T06:23:01;94075.56;;;4.63;97.82
6680;BME280;3376;42.664;23.346;2023-02-04T06:25:29;94078.03;;;4.72;96.52
6680;BME280;3376;42.664;23.346;2023-02-04T06:27:57;94078.84;;;4.73;95.74
6680;BME280;3376;42.664;23.346;2023-02-04T06:30:23;94086.84;;;4.70;94.84
6680;BME280;3376;42.664;23.346;2023-02-04T06:32:50;94081.69;;;4.70;96.19
6680;BME280;3376;42.664;23.346;2023-02-04T06:35:17;94080.34;;;4.58;94.59
6680;BME280;3376;42.664;23.346;2023-02-04T06:37:44;94078.81;;;4.47;95.88
6680;BME280;3376;42.664;23.346;2023-02-04T06:40:11;94072.75;;;4.48;95.83
6680;BME280;3376;42.664;23.346;2023-02-04T06:42:39;94072.00;;;4.56;96.88
6680;BME280;3376;42.664;23.346;2023-02-04T06:45:07;94080.34;;;4.58;94.55
6680;BME280;3376;42.664;23.346;2023-02-04T06:47:33;94081.78;;;4.52;94.16
6680;BME280;3376;42.664;23.346;2023-02-04T06:50:00;94079.75;;;4.64;92.82
6680;BME280;3376;42.664;23.346;2023-02-04T06:52:27;94092.03;;;4.78;92.12
6680;BME280;3376;42.664;23.346;2023-02-04T06:54:53;94083.69;;;4.76;91.02
6680;BME280;3376;42.664;23.346;2023-02-04T06:57:20;94085.81;;;4.89;90.70
6680;BME280;3376;42.664;23.346;2023-02-04T06:59:48;94076.00;;;5.10;89.47
6680;BME280;3376;42.664;23.346;2023-02-04T07:02:15;94077.25;;;5.97;88.10
6680;BME280;3376;42.664;23.346;2023-02-04T07:04:41;94065.81;;;7.35;80.47
6680;BME280;3376;42.664;23.346;2023-02-04T07:07:09;94067.09;;;8.45;73.57
6680;BME280;3376;42.664;23.346;2023-02-04T07:09:36;94075.78;;;9.33;67.97
6680;BME280;3376;42.664;23.346;2023-02-04T07:12:05;94077.03;;;10.02;64.20
6680;BME280;3376;42.664;23.346;2023-02-04T07:14:32;94072.28;;;10.41;61.11
6680;BME280;3376;42.664;23.346;2023-02-04T07:17:00;94047.47;;;10.74;59.33
6680;BME280;3376;42.664;23.346;2023-02-04T07:19:26;94066.81;;;10.78;58.31
6680;BME280;3376;42.664;23.346;2023-02-04T07:21:53;94050.06;;;11.02;58.59
6680;BME280;3376;42.664;23.346;2023-02-04T07:24:21;94049.38;;;10.87;56.13
6680;BME280;3376;42.664;23.346;2023-02-04T07:26:48;94054.13;;;9.84;61.03
6680;BME280;3376;42.664;23.346;2023-02-04T07:29:15;94046.25;;;9.57;62.63
6680;BME280;3376;42.664;23.346;2023-02-04T07:31:43;94049.50;;;9.44;63.06
6680;BME280;3376;42.664;23.346;2023-02-04T07:34:11;94045.97;;;10.02;62.50
6680;BME280;3376;42.664;23.346;2023-02-04T07:36:38;94041.16;;;10.55;59.28
6680;BME280;3376;42.664;23.346;2023-02-04T07:39:05;94050.78;;;10.68;58.66
6680;BME280;3376;42.664;23.346;2023-02-04T07:41:32;94051.03;;;10.45;59.17
6680;BME280;3376;42.664;23.346;2023-02-04T07:43:59;94033.38;;;10.55;57.85
6680;BME280;3376;42.664;23.346;2023-02-04T07:46:26;94044.56;;;10.90;57.45
6680;BME280;3376;42.664;23.346;2023-02-04T07:48:52;94055.84;;;11.72;56.27
6680;BME280;3376;42.664;23.346;2023-02-04T07:51:21;94047.66;;;12.35;53.66
6680;BME280;3376;42.664;23.346;2023-02-04T07:53:47;94052.44;;;12.51;53.00
6680;BME280;3376;42.664;23.346;2023-02-04T07:56:14;94043.97;;;11.97;53.14
6680;BME280;3376;42.664;23.346;2023-02-04T07:58:41;94051.19;;;12.08;52.99
6680;BME280;3376;42.664;23.346;2023-02-04T08:01:07;94034.88;;;11.67;53.89
6680;BME280;3376;42.664;23.346;2023-02-04T08:03:34;94035.97;;;10.55;55.79
6680;BME280;3376;42.664;23.346;2023-02-04T08:06:01;94045.50;;;9.77;60.68
6680;BME280;3376;42.664;23.346;2023-02-04T08:08:29;94039.09;;;9.37;61.31
6680;BME280;3376;42.664;23.346;2023-02-04T08:10:56;94051.50;;;8.61;63.97
6680;BME280;3376;42.664;23.346;2023-02-04T08:13:22;94037.94;;;7.99;67.62
6680;BME280;3376;42.664;23.346;2023-02-04T08:15:49;94019.78;;;7.32;70.36
6680;BME280;3376;42.664;23.346;2023-02-04T08:18:16;94038.56;;;7.09;72.92
6680;BME280;3376;42.664;23.346;2023-02-04T08:20:43;94050.81;;;6.99;73.71
6680;BME280;3376;42.664;23.346;2023-02-04T08:23:10;94059.06;;;6.79;75.82
6680;BME280;3376;42.664;23.346;2023-02-04T08:25:38;94054.25;;;6.76;75.30
6680;BME280;3376;42.664;23.346;2023-02-04T08:28:05;94038.84;;;6.60;76.69
6680;BME280;3376;42.664;23.346;2023-02-04T08:30:31;94049.13;;;6.68;82.11
6680;BME280;3376;42.664;23.346;2023-02-04T08:32:58;94032.22;;;6.65;77.65
6680;BME280;3376;42.664;23.346;2023-02-04T08:35:25;94036.75;;;6.47;77.86
6680;BME280;3376;42.664;23.346;2023-02-04T08:37:52;94041.94;;;6.39;78.58
6680;BME280;3376;42.664;23.346;2023-02-04T08:40:18;94028.91;;;6.17;79.34
6680;BME280;3376;42.664;23.346;2023-02-04T08:42:46;94030.69;;;6.08;81.10
6680;BME280;3376;42.664;23.346;2023-02-04T08:45:13;94032.28;;;6.09;82.21
6680;BME280;3376;42.664;23.346;2023-02-04T08:47:40;94035.00;;;6.08;82.35
6680;BME280;3376;42.664;23.346;2023-02-04T08:50:09;94035.97;;;5.90;82.74
6680;BME280;3376;42.664;23.346;2023-02-04T08:52:35;94015.66;;;5.71;83.88
6680;BME280;3376;42.664;23.346;2023-02-04T08:55:02;94023.88;;;5.67;85.78
6680;BME280;3376;42.664;23.346;2023-02-04T08:57:29;94030.44;;;5.69;86.77
6680;BME280;3376;42.664;23.346;2023-02-04T08:59:57;94024.97;;;5.64;89.24
6680;BME280;3376;42.664;23.346;2023-02-04T09:02:24;94028.19;;;5.58;87.48
6680;BME280;3376;42.664;23.346;2023-02-04T09:04:51;94012.72;;;5.50;86.47
6680;BME280;3376;42.664;23.346;2023-02-04T09:07:18;94007.75;;;5.41;86.59
6680;BME280;3376;42.664;23.346;2023-02-04T09:09:46;93998.28;;;5.41;89.03
6680;BME280;3376;42.664;23.346;2023-02-04T09:12:12;94012.44;;;5.53;87.69
6680;BME280;3376;42.664;23.346;2023-02-04T09:14:39;94025.13;;;5.71;86.54
6680;BME280;3376;42.664;23.346;2023-02-04T09:17:07;94018.56;;;5.76;85.75
6680;BME280;3376;42.664;23.346;2023-02-04T09:19:34;93988.34;;;5.62;84.38
6680;BME280;3376;42.664;23.346;2023-02-04T09:22:01;94011.38;;;5.88;83.47
6680;BME280;3376;42.664;23.346;2023-02-04T09:24:27;94013.31;;;5.86;84.92
6680;BME280;3376;42.664;23.346;2023-02-04T09:26:54;94014.13;;;6.03;82.16
6680;BME280;3376;42.664;23.346;2023-02-04T09:29:21;94012.03;;;5.98;80.72
6680;BME280;3376;42.664;23.346;2023-02-04T09:31:47;94025.69;;;5.90;82.01
6680;BME280;3376;42.664;23.346;2023-02-04T09:34:16;94016.22;;;5.91;82.31
6680;BME280;3376;42.664;23.346;2023-02-04T09:36:42;94024.03;;;5.81;81.86
6680;BME280;3376;42.664;23.346;2023-02-04T09:39:09;94013.25;;;5.70;83.45
6680;BME280;3376;42.664;23.346;2023-02-04T09:41:37;94016.94;;;5.59;86.68
6680;BME280;3376;42.664;23.346;2023-02-04T09:44:09;94022.06;;;5.59;87.23
6680;BME280;3376;42.664;23.346;2023-02-04T09:46:38;94012.88;;;5.49;88.76
6680;BME280;3376;42.664;23.346;2023-02-04T09:49:08;93997.47;;;5.41;89.63
6680;BME280;3376;42.664;23.346;2023-02-04T09:51:37;93999.56;;;5.45;90.10
6680;BME280;3376;42.664;23.346;2023-02-04T09:54:07;94005.66;;;5.44;91.66
6680;BME280;3376;42.664;23.346;2023-02-04T09:56:34;93999.53;;;5.29;93.02
6680;BME280;3376;42.664;23.346;2023-02-04T09:59:03;93982.81;;;5.17;93.84
6680;BME280;3376;42.664;23.346;2023-02-04T10:01:29;93995.34;;;5.20;95.57
6680;BME280;3376;42.664;23.346;2023-02-04T10:04:00;93979.25;;;5.10;96.59
6680;BME280;3376;42.664;23.346;2023-02-04T10:06:27;93986.47;;;5.15;94.89
6680;BME280;3376;42.664;23.346;2023-02-04T10:08:55;93961.88;;;4.96;94.67
6680;BME280;3376;42.664;23.346;2023-02-04T10:11:24;93985.06;;;5.12;94.82
6680;BME280;3376;42.664;23.346;2023-02-04T10:13:53;93969.81;;;5.19;94.92
6680;BME280;3376;42.664;23.346;2023-02-04T10:16:23;93965.16;;;5.14;94.75
6680;BME280;3376;42.664;23.346;2023-02-04T10:18:55;93958.91;;;5.17;93.57
6680;BME280;3376;42.664;23.346;2023-02-04T10:21:25;93972.50;;;5.09;93.41
6680;BME280;3376;42.664;23.346;2023-02-04T10:23:56;93964.97;;;5.08;94.78
6680;BME280;3376;42.664;23.346;2023-02-04T10:26:25;93970.75;;;5.18;94.95
6680;BME280;3376;42.664;23.346;2023-02-04T10:29:00;93959.56;;;5.27;94.25
6680;BME280;3376;42.664;23.346;2023-02-04T10:31:30;93917.28;;;4.97;94.56
6680;BME280;3376;42.664;23.346;2023-02-04T10:34:10;93969.38;;;5.31;93.58
6680;BME280;3376;42.664;23.346;2023-02-04T10:36:38;93969.38;;;5.39;92.74
6680;BME280;3376;42.664;23.346;2023-02-04T10:39:12;93972.28;;;5.44;92.62
6680;BME280;3376;42.664;23.346;2023-02-04T10:41:43;93960.22;;;5.37;94.35
6680;BME280;3376;42.664;23.346;2023-02-04T10:44:12;93943.00;;;5.13;97.53
6680;BME280;3376;42.664;23.346;2023-02-04T10:46:39;93956.19;;;5.26;99.54
6680;BME280;3376;42.664;23.346;2023-02-04T10:49:16;93931.97;;;5.21;100.00
6680;BME280;3376;42.664;23.346;2023-02-04T10:51:44;93950.38;;;5.16;100.00
6680;BME280;3376;42.664;23.346;2023-02-04T10:54:12;93943.59;;;4.99;100.00
6680;BME280;3376;42.664;23.346;2023-02-04T10:57:06;93952.25;;;4.90;100.00
6680;BME280;3376;42.664;23.346;2023-02-04T10:59:35;93946.44;;;5.54;100.00
6680;BME280;3376;42.664;23.346;2023-02-04T11:02:20;93947.91;;;5.72;100.00
6680;BME280;3376;42.664;23.346;2023-02-04T11:04:53;93943.06;;;5.61;100.00
6680;BME280;3376;42.664;23.346;2023-02-04T11:07:20;93947.09;;;5.56;100.00
6680;BME280;3376;42.664;23.346;2023-02-04T11:09:49;93940.03;;;5.50;100.00
6680;BME280;3376;42.664;23.346;2023-02-04T11:12:21;93937.13;;;5.53;100.00
6680;BME280;3376;42.664;23.346;2023-02-04T11:14:54;93923.16;;;6.04;100.00
6680;BME280;3376;42.664;23.346;2023-02-04T11:17:28;93927.19;;;6.22;100.00
6680;BME280;3376;42.664;23.346;2023-02-04T11:19:56;93939.53;;;6.27;98.46
6680;BME280;3376;42.664;23.346;2023-02-04T11:22:43;93929.09;;;6.12;96.94
6680;BME280;3376;42.664;23.346;2023-02-04T11:25:31;93923.47;;;6.09;96.54
6680;BME280;3376;42.664;23.346;2023-02-04T11:27:58;93924.66;;;5.98;98.51
6680;BME280;3376;42.664;23.346;2023-02-04T11:30:31;93913.03;;;5.78;98.38
6680;BME280;3376;42.664;23.346;2023-02-04T11:33:02;93928.00;;;6.07;99.79
6680;BME280;3376;42.664;23.346;2023-02-04T11:35:30;93930.72;;;6.05;99.42
6680;BME280;3376;42.664;23.346;2023-02-04T11:37:57;93935.06;;;6.05;100.00
6680;BME280;3376;42.664;23.346;2023-02-04T11:40:30;93940.53;;;6.02;100.00
6680;BME280;3376;42.664;23.346;2023-02-04T11:43:00;93939.72;;;6.09;100.00
6680;BME280;3376;42.664;23.346;2023-02-04T11:45:30;93945.19;;;6.06;99.59
6680;BME280;3376;42.664;23.346;2023-02-04T11:48:00;93885.16;;;6.38;100.00
6680;BME280;3376;42.664;23.346;2023-02-04T11:50:28;93937.00;;;7.35;100.00
6680;BME280;3376;42.664;23.346;2023-02-04T11:52:56;93941.94;;;7.89;100.00
6680;BME280;3376;42.664;23.346;2023-02-04T11:55:23;93934.69;;;8.59;100.00
6680;BME280;3376;42.664;23.346;2023-02-04T11:57:54;93938.16;;;9.10;95.44
6680;BME280;3376;42.664;23.346;2023-02-04T12:00:23;93949.09;;;9.12;93.13
6680;BME280;3376;42.664;23.346;2023-02-04T12:02:55;93953.84;;;9.08;90.94
6680;BME280;3376;42.664;23.346;2023-02-04T12:05:34;93941.06;;;9.21;93.71
6680;BME280;3376;42.664;23.346;2023-02-04T12:08:09;93931.09;;;9.54;99.17
6680;BME280;3376;42.664;23.346;2023-02-04T12:10:36;93943.28;;;9.81;89.68
6680;BME280;3376;42.664;23.346;2023-02-04T12:13:18;93941.44;;;9.18;83.19
6680;BME280;3376;42.664;23.346;2023-02-04T12:15:53;93932.53;;;8.33;86.37
6680;BME280;3376;42.664;23.346;2023-02-04T12:18:21;93910.06;;;7.45;92.19
6680;BME280;3376;42.664;23.346;2023-02-04T12:20:47;93933.63;;;7.03;95.34
6680;BME280;3376;42.664;23.346;2023-02-04T12:23:14;93926.28;;;6.54;98.71
6680;BME280;3376;42.664;23.346;2023-02-04T12:25:41;93927.44;;;6.43;100.00
6680;BME280;3376;42.664;23.346;2023-02-04T12:28:08;93922.78;;;6.39;100.00
6680;BME280;3376;42.664;23.346;2023-02-04T12:30:36;93827.78;;;5.74;100.00
6680;BME280;3376;42.664;23.346;2023-02-04T12:33:02;93901.97;;;6.10;100.00
6680;BME280;3376;42.664;23.346;2023-02-04T12:35:29;93920.59;;;6.04;100.00
6680;BME280;3376;42.664;23.346;2023-02-04T12:37:56;93909.53;;;5.95;100.00
6680;BME280;3376;42.664;23.346;2023-02-04T12:40:23;93886.06;;;5.82;100.00
6680;BME280;3376;42.664;23.346;2023-02-04T12:42:49;93913.38;;;6.07;100.00
6680;BME280;3376;42.664;23.346;2023-02-04T12:45:17;93913.84;;;6.11;100.00
6680;BME280;3376;42.664;23.346;2023-02-04T12:47:45;93908.72;;;6.03;100.00
6680;BME280;3376;42.664;23.346;2023-02-04T12:50:14;93912.72;;;6.05;100.00
6680;BME280;3376;42.664;23.346;2023-02-04T12:52:47;93904.38;;;5.95;100.00
6680;BME280;3376;42.664;23.346;2023-02-04T12:55:14;93916.13;;;5.89;99.43
6680;BME280;3376;42.664;23.346;2023-02-04T12:57:41;93911.63;;;6.00;98.69
6680;BME280;3376;42.664;23.346;2023-02-04T13:00:09;93907.91;;;6.02;97.83
6680;BME280;3376;42.664;23.346;2023-02-04T13:02:35;93912.91;;;5.87;96.35
6680;BME280;3376;42.664;23.346;2023-02-04T13:05:04;93899.88;;;5.73;96.33
6680;BME280;3376;42.664;23.346;2023-02-04T13:07:31;93881.56;;;5.44;96.63
6680;BME280;3376;42.664;23.346;2023-02-04T13:09:58;93870.84;;;5.32;95.83
6680;BME280;3376;42.664;23.346;2023-02-04T13:12:25;93883.19;;;5.21;97.18
6680;BME280;3376;42.664;23.346;2023-02-04T13:14:52;93897.44;;;5.15;98.50
6680;BME280;3376;42.664;23.346;2023-02-04T13:17:19;93923.78;;;5.17;98.74
6680;BME280;3376;42.664;23.346;2023-02-04T13:19:46;93927.94;;;5.18;99.31